sensor_id;sensor_type;location;lat;lon;timestamp;P1;durP1;ratioP1;P2;durP2;ratioP2
26838;SDS011;40088;51.214;6.786;2023-05-02T00:03:38;3.88;;;3.28;;
26838;SDS011;40088;51.214;6.786;2023-05-02T00:13:38;4.95;;;3.35;;
26838;SDS011;40088;51.214;6.786;2023-05-02T00:23:39;5.32;;;3.58;;
26838;SDS011;40088;51.214;6.786;2023-05-02T00:33:39;4.72;;;3.90;;
26838;SDS011;40088;51.214;6.786;2023-05-02T00:43:39;5.68;;;4.63;;
26838;SDS011;40088;51.214;6.786;2023-05-02T00:53:40;5.97;;;4.95;;
26838;SDS011;40088;51.214;6.786;2023-05-02T01:03:44;6.07;;;5.18;;
26838;SDS011;40088;51.214;6.786;2023-05-02T01:13:51;6.90;;;5.50;;
26838;SDS011;40088;51.214;6.786;2023-05-02T01:24:02;8.07;;;5.75;;
26838;SDS011;40088;51.214;6.786;2023-05-02T01:34:04;7.78;;;5.65;;
26838;SDS011;40088;51.214;6.786;2023-05-02T01:44:08;7.32;;;6.13;;
26838;SDS011;40088;51.214;6.786;2023-05-02T01:54:11;7.38;;;6.30;;
26838;SDS011;40088;51.214;6.786;2023-05-02T02:04:14;7.35;;;6.05;;
26838;SDS011;40088;51.214;6.786;2023-05-02T02:14:17;9.43;;;7.65;;
26838;SDS011;40088;51.214;6.786;2023-05-02T02:24:20;7.88;;;6.40;;
26838;SDS011;40088;51.214;6.786;2023-05-02T02:34:21;8.35;;;6.63;;
26838;SDS011;40088;51.214;6.786;2023-05-02T02:44:27;8.75;;;7.03;;
26838;SDS011;40088;51.214;6.786;2023-05-02T02:54:38;8.93;;;7.05;;
26838;SDS011;40088;51.214;6.786;2023-05-02T03:04:44;9.10;;;6.85;;
26838;SDS011;40088;51.214;6.786;2023-05-02T03:14:46;7.80;;;6.70;;
26838;SDS011;40088;51.214;6.786;2023-05-02T03:24:46;8.13;;;7.03;;
26838;SDS011;40088;51.214;6.786;2023-05-02T03:34:47;7.93;;;6.50;;
26838;SDS011;40088;51.214;6.786;2023-05-02T03:44:50;8.30;;;6.68;;
26838;SDS011;40088;51.214;6.786;2023-05-02T03:54:51;9.23;;;6.50;;
26838;SDS011;40088;51.214;6.786;2023-05-02T04:04:51;9.20;;;7.18;;
26838;SDS011;40088;51.214;6.786;2023-05-02T04:14:51;8.20;;;6.53;;
26838;SDS011;40088;51.214;6.786;2023-05-02T04:24:52;8.93;;;6.88;;
26838;SDS011;40088;51.214;6.786;2023-05-02T04:34:53;8.45;;;6.30;;
26838;SDS011;40088;51.214;6.786;2023-05-02T04:44:54;10.15;;;6.80;;
26838;SDS011;40088;51.214;6.786;2023-05-02T04:54:55;8.57;;;6.85;;
26838;SDS011;40088;51.214;6.786;2023-05-02T05:04:56;8.07;;;6.38;;
26838;SDS011;40088;51.214;6.786;2023-05-02T05:14:56;9.13;;;6.35;;
26838;SDS011;40088;51.214;6.786;2023-05-02T05:24:56;8.85;;;6.15;;
26838;SDS011;40088;51.214;6.786;2023-05-02T05:34:57;9.23;;;6.30;;
26838;SDS011;40088;51.214;6.786;2023-05-02T05:44:57;7.68;;;5.78;;
26838;SDS011;40088;51.214;6.786;2023-05-02T05:54:57;6.95;;;5.40;;
26838;SDS011;40088;51.214;6.786;2023-05-02T06:04:58;6.25;;;5.50;;
26838;SDS011;40088;51.214;6.786;2023-05-02T06:14:58;5.85;;;5.22;;
26838;SDS011;40088;51.214;6.786;2023-05-02T06:24:59;5.40;;;4.85;;
26838;SDS011;40088;51.214;6.786;2023-05-02T06:35:00;6.35;;;5.07;;
26838;SDS011;40088;51.214;6.786;2023-05-02T06:45:00;7.05;;;5.15;;
26838;SDS011;40088;51.214;6.786;2023-05-02T06:55:00;6.32;;;4.65;;
26838;SDS011;40088;51.214;6.786;2023-05-02T07:05:00;6.63;;;5.18;;
26838;SDS011;40088;51.214;6.786;2023-05-02T07:15:01;6.13;;;4.63;;
26838;SDS011;40088;51.214;6.786;2023-05-02T07:25:01;5.85;;;4.30;;
26838;SDS011;40088;51.214;6.786;2023-05-02T07:35:02;5.10;;;4.00;;
26838;SDS011;40088;51.214;6.786;2023-05-02T07:45:02;5.07;;;4.32;;
26838;SDS011;40088;51.214;6.786;2023-05-02T07:55:03;6.57;;;3.88;;
26838;SDS011;40088;51.214;6.786;2023-05-02T08:05:04;4.93;;;3.75;;
26838;SDS011;40088;51.214;6.786;2023-05-02T08:15:08;4.60;;;3.43;;
26838;SDS011;40088;51.214;6.786;2023-05-02T08:25:11;3.92;;;3.40;;
26838;SDS011;40088;51.214;6.786;2023-05-02T08:35:11;6.10;;;3.78;;
26838;SDS011;40088;51.214;6.786;2023-05-02T08:45:12;6.45;;;3.85;;
26838;SDS011;40088;51.214;6.786;2023-05-02T08:55:13;4.38;;;3.28;;
26838;SDS011;40088;51.214;6.786;2023-05-02T09:05:15;4.03;;;2.92;;
26838;SDS011;40088;51.214;6.786;2023-05-02T09:15:19;5.43;;;3.35;;
26838;SDS011;40088;51.214;6.786;2023-05-02T09:25:20;4.88;;;2.95;;
26838;SDS011;40088;51.214;6.786;2023-05-02T09:35:20;4.28;;;2.88;;
26838;SDS011;40088;51.214;6.786;2023-05-02T09:45:24;4.28;;;2.88;;
26838;SDS011;40088;51.214;6.786;2023-05-02T09:55:25;4.32;;;3.20;;
26838;SDS011;40088;51.214;6.786;2023-05-02T10:05:25;4.63;;;3.03;;
26838;SDS011;40088;51.214;6.786;2023-05-02T10:15:26;6.00;;;3.03;;
26838;SDS011;40088;51.214;6.786;2023-05-02T10:25:29;4.13;;;2.90;;
26838;SDS011;40088;51.214;6.786;2023-05-02T10:35:32;5.97;;;3.33;;
26838;SDS011;40088;51.214;6.786;2023-05-02T10:45:36;4.68;;;3.53;;
26838;SDS011;40088;51.214;6.786;2023-05-02T10:55:37;5.70;;;3.55;;
26838;SDS011;40088;51.214;6.786;2023-05-02T11:06:02;6.53;;;3.42;;
26838;SDS011;40088;51.214;6.786;2023-05-02T11:16:04;7.47;;;3.20;;
26838;SDS011;40088;51.214;6.786;2023-05-02T11:26:06;5.47;;;3.28;;
26838;SDS011;40088;51.214;6.786;2023-05-02T11:36:27;3.88;;;3.30;;
26838;SDS011;40088;51.214;6.786;2023-05-02T11:46:29;5.25;;;2.90;;
26838;SDS011;40088;51.214;6.786;2023-05-02T11:56:29;5.15;;;3.00;;
26838;SDS011;40088;51.214;6.786;2023-05-02T12:06:30;5.57;;;3.30;;
26838;SDS011;40088;51.214;6.786;2023-05-02T12:16:30;4.80;;;3.00;;
26838;SDS011;40088;51.214;6.786;2023-05-02T12:26:31;5.78;;;3.20;;
26838;SDS011;40088;51.214;6.786;2023-05-02T12:36:32;4.32;;;2.60;;
26838;SDS011;40088;51.214;6.786;2023-05-02T12:46:33;5.53;;;3.00;;
26838;SDS011;40088;51.214;6.786;2023-05-02T12:56:39;4.80;;;3.05;;
26838;SDS011;40088;51.214;6.786;2023-05-02T13:06:41;5.40;;;3.10;;
26838;SDS011;40088;51.214;6.786;2023-05-02T13:16:41;5.72;;;2.90;;
26838;SDS011;40088;51.214;6.786;2023-05-02T13:26:42;5.03;;;2.92;;
26838;SDS011;40088;51.214;6.786;2023-05-02T13:36:42;4.78;;;3.10;;
26838;SDS011;40088;51.214;6.786;2023-05-02T13:46:44;4.95;;;2.67;;
26838;SDS011;40088;51.214;6.786;2023-05-02T13:56:45;3.15;;;2.47;;
26838;SDS011;40088;51.214;6.786;2023-05-02T14:06:45;4.28;;;2.90;;
26838;SDS011;40088;51.214;6.786;2023-05-02T14:16:45;4.18;;;2.78;;
26838;SDS011;40088;51.214;6.786;2023-05-02T14:26:46;3.47;;;2.55;;
26838;SDS011;40088;51.214;6.786;2023-05-02T14:36:46;4.35;;;2.50;;
26838;SDS011;40088;51.214;6.786;2023-05-02T14:46:46;4.55;;;2.90;;
26838;SDS011;40088;51.214;6.786;2023-05-02T14:56:47;3.78;;;2.38;;
26838;SDS011;40088;51.214;6.786;2023-05-02T15:06:47;3.67;;;2.42;;
26838;SDS011;40088;51.214;6.786;2023-05-02T15:16:47;4.30;;;2.60;;
26838;SDS011;40088;51.214;6.786;2023-05-02T15:26:48;3.67;;;2.40;;
26838;SDS011;40088;51.214;6.786;2023-05-02T15:36:48;4.35;;;2.30;;
26838;SDS011;40088;51.214;6.786;2023-05-02T15:46:48;4.25;;;2.35;;
26838;SDS011;40088;51.214;6.786;2023-05-02T15:56:49;5.82;;;2.35;;
26838;SDS011;40088;51.214;6.786;2023-05-02T16:06:49;3.60;;;2.40;;
26838;SDS011;40088;51.214;6.786;2023-05-02T16:16:49;4.70;;;2.40;;
26838;SDS011;40088;51.214;6.786;2023-05-02T16:26:50;4.30;;;2.50;;
26838;SDS011;40088;51.214;6.786;2023-05-02T16:36:50;5.32;;;2.50;;
26838;SDS011;40088;51.214;6.786;2023-05-02T16:46:51;5.22;;;2.55;;
26838;SDS011;40088;51.214;6.786;2023-05-02T16:56:52;3.65;;;2.45;;
26838;SDS011;40088;51.214;6.786;2023-05-02T17:06:53;4.65;;;2.40;;
26838;SDS011;40088;51.214;6.786;2023-05-02T17:16:54;4.65;;;2.60;;
26838;SDS011;40088;51.214;6.786;2023-05-02T17:26:55;3.45;;;2.47;;
26838;SDS011;40088;51.214;6.786;2023-05-02T17:36:55;2.85;;;2.15;;
26838;SDS011;40088;51.214;6.786;2023-05-02T17:46:56;5.13;;;2.50;;
26838;SDS011;40088;51.214;6.786;2023-05-02T17:56:57;4.63;;;3.25;;
26838;SDS011;40088;51.214;6.786;2023-05-02T18:06:57;3.05;;;2.42;;
26838;SDS011;40088;51.214;6.786;2023-05-02T18:16:58;4.88;;;3.22;;
26838;SDS011;40088;51.214;6.786;2023-05-02T18:26:58;4.05;;;2.72;;
26838;SDS011;40088;51.214;6.786;2023-05-02T18:36:58;4.05;;;3.20;;
26838;SDS011;40088;51.214;6.786;2023-05-02T18:47:00;5.95;;;3.45;;
26838;SDS011;40088;51.214;6.786;2023-05-02T18:57:01;5.88;;;3.38;;
26838;SDS011;40088;51.214;6.786;2023-05-02T19:07:02;7.53;;;3.10;;
26838;SDS011;40088;51.214;6.786;2023-05-02T19:17:03;5.40;;;3.10;;
26838;SDS011;40088;51.214;6.786;2023-05-02T19:27:05;5.10;;;3.10;;
26838;SDS011;40088;51.214;6.786;2023-05-02T19:37:06;4.95;;;3.08;;
26838;SDS011;40088;51.214;6.786;2023-05-02T19:47:07;4.30;;;2.93;;
26838;SDS011;40088;51.214;6.786;2023-05-02T19:57:08;6.30;;;3.20;;
26838;SDS011;40088;51.214;6.786;2023-05-02T20:07:08;4.95;;;3.22;;
26838;SDS011;40088;51.214;6.786;2023-05-02T20:17:10;6.80;;;3.58;;
26838;SDS011;40088;51.214;6.786;2023-05-02T20:27:11;4.47;;;3.00;;
26838;SDS011;40088;51.214;6.786;2023-05-02T20:37:13;5.25;;;2.90;;
26838;SDS011;40088;51.214;6.786;2023-05-02T20:47:14;5.32;;;3.10;;
26838;SDS011;40088;51.214;6.786;2023-05-02T20:57:15;6.47;;;3.42;;
26838;SDS011;40088;51.214;6.786;2023-05-02T21:07:15;6.73;;;3.90;;
26838;SDS011;40088;51.214;6.786;2023-05-02T21:17:16;4.43;;;3.53;;
26838;SDS011;40088;51.214;6.786;2023-05-02T21:27:16;4.60;;;3.70;;
26838;SDS011;40088;51.214;6.786;2023-05-02T21:37:17;5.25;;;3.38;;
26838;SDS011;40088;51.214;6.786;2023-05-02T21:47:17;5.72;;;3.33;;
26838;SDS011;40088;51.214;6.786;2023-05-02T21:57:18;5.70;;;3.58;;
26838;SDS011;40088;51.214;6.786;2023-05-02T22:07:19;3.92;;;3.03;;
26838;SDS011;40088;51.214;6.786;2023-05-02T22:17:20;6.10;;;3.47;;
26838;SDS011;40088;51.214;6.786;2023-05-02T22:27:21;5.80;;;3.33;;
26838;SDS011;40088;51.214;6.786;2023-05-02T22:37:21;4.88;;;3.08;;
26838;SDS011;40088;51.214;6.786;2023-05-02T22:47:22;5.63;;;2.88;;
26838;SDS011;40088;51.214;6.786;2023-05-02T22:57:22;3.88;;;2.70;;
26838;SDS011;40088;51.214;6.786;2023-05-02T23:07:23;5.18;;;2.92;;
26838;SDS011;40088;51.214;6.786;2023-05-02T23:17:23;4.70;;;2.60;;
26838;SDS011;40088;51.214;6.786;2023-05-02T23:27:23;5.05;;;2.75;;
26838;SDS011;40088;51.214;6.786;2023-05-02T23:37:24;5.25;;;2.63;;
26838;SDS011;40088;51.214;6.786;2023-05-02T23:47:25;5.18;;;2.53;;
26838;SDS011;40088;51.214;6.786;2023-05-02T23:57:27;3.20;;;2.67;;
